sensor_id;sensor_type;location;lat;lon;timestamp;P1;durP1;ratioP1;P2;durP2;ratioP2
23682;SDS011;24897;53.514;10.482;2023-01-28T00:01:46;37.07;;;33.73;;
23682;SDS011;24897;53.514;10.482;2023-01-28T00:04:30;37.23;;;33.73;;
23682;SDS011;24897;53.514;10.482;2023-01-28T00:07:14;37.90;;;34.30;;
23682;SDS011;24897;53.514;10.482;2023-01-28T00:09:58;37.53;;;33.93;;
23682;SDS011;24897;53.514;10.482;2023-01-28T00:12:42;37.77;;;34.37;;
23682;SDS011;24897;53.514;10.482;2023-01-28T00:15:26;38.50;;;34.70;;
23682;SDS011;24897;53.514;10.482;2023-01-28T00:18:11;35.03;;;31.83;;
23682;SDS011;24897;53.514;10.482;2023-01-28T00:21:03;31.23;;;28.53;;
23682;SDS011;24897;53.514;10.482;2023-01-28T00:23:51;31.07;;;28.47;;
23682;SDS011;24897;53.514;10.482;2023-01-28T00:26:36;30.93;;;28.33;;
23682;SDS011;24897;53.514;10.482;2023-01-28T00:29:20;31.27;;;28.67;;
23682;SDS011;24897;53.514;10.482;2023-01-28T00:32:04;31.60;;;28.90;;
23682;SDS011;24897;53.514;10.482;2023-01-28T00:34:49;33.17;;;30.27;;
23682;SDS011;24897;53.514;10.482;2023-01-28T00:37:33;34.60;;;31.50;;
23682;SDS011;24897;53.514;10.482;2023-01-28T00:40:19;34.40;;;31.30;;
23682;SDS011;24897;53.514;10.482;2023-01-28T00:43:03;36.10;;;32.90;;
23682;SDS011;24897;53.514;10.482;2023-01-28T00:45:47;36.33;;;33.13;;
23682;SDS011;24897;53.514;10.482;2023-01-28T00:48:35;36.53;;;33.20;;
23682;SDS011;24897;53.514;10.482;2023-01-28T00:51:22;34.70;;;31.40;;
23682;SDS011;24897;53.514;10.482;2023-01-28T00:54:07;31.27;;;28.47;;
23682;SDS011;24897;53.514;10.482;2023-01-28T00:56:53;29.70;;;27.20;;
23682;SDS011;24897;53.514;10.482;2023-01-28T00:59:38;27.87;;;25.53;;
23682;SDS011;24897;53.514;10.482;2023-01-28T01:02:22;26.17;;;23.97;;
23682;SDS011;24897;53.514;10.482;2023-01-28T01:05:06;26.93;;;24.73;;
23682;SDS011;24897;53.514;10.482;2023-01-28T01:07:51;27.57;;;25.17;;
23682;SDS011;24897;53.514;10.482;2023-01-28T01:10:36;25.63;;;23.50;;
23682;SDS011;24897;53.514;10.482;2023-01-28T01:13:20;23.10;;;21.30;;
23682;SDS011;24897;53.514;10.482;2023-01-28T01:16:06;24.27;;;22.20;;
23682;SDS011;24897;53.514;10.482;2023-01-28T01:18:55;25.97;;;23.87;;
23682;SDS011;24897;53.514;10.482;2023-01-28T01:21:39;26.53;;;24.27;;
23682;SDS011;24897;53.514;10.482;2023-01-28T01:24:23;24.10;;;22.20;;
23682;SDS011;24897;53.514;10.482;2023-01-28T01:27:08;24.03;;;22.13;;
23682;SDS011;24897;53.514;10.482;2023-01-28T01:29:52;23.67;;;21.80;;
23682;SDS011;24897;53.514;10.482;2023-01-28T01:32:36;24.10;;;22.10;;
23682;SDS011;24897;53.514;10.482;2023-01-28T01:35:21;23.47;;;21.67;;
23682;SDS011;24897;53.514;10.482;2023-01-28T01:38:05;24.97;;;22.97;;
23682;SDS011;24897;53.514;10.482;2023-01-28T01:40:49;25.73;;;23.60;;
23682;SDS011;24897;53.514;10.482;2023-01-28T01:46:57;25.87;;;23.77;;
23682;SDS011;24897;53.514;10.482;2023-01-28T01:49:41;26.57;;;24.37;;
23682;SDS011;24897;53.514;10.482;2023-01-28T01:52:26;26.03;;;23.93;;
23682;SDS011;24897;53.514;10.482;2023-01-28T01:55:15;25.73;;;23.63;;
23682;SDS011;24897;53.514;10.482;2023-01-28T01:58:04;27.13;;;25.03;;
23682;SDS011;24897;53.514;10.482;2023-01-28T02:00:51;27.57;;;25.17;;
23682;SDS011;24897;53.514;10.482;2023-01-28T02:03:37;27.30;;;25.00;;
23682;SDS011;24897;53.514;10.482;2023-01-28T02:06:37;28.20;;;25.90;;
23682;SDS011;24897;53.514;10.482;2023-01-28T02:09:24;28.90;;;26.40;;
23682;SDS011;24897;53.514;10.482;2023-01-28T02:12:15;27.97;;;25.60;;
23682;SDS011;24897;53.514;10.482;2023-01-28T02:15:05;27.80;;;25.60;;
23682;SDS011;24897;53.514;10.482;2023-01-28T02:17:52;31.67;;;29.07;;
23682;SDS011;24897;53.514;10.482;2023-01-28T02:29:25;29.30;;;26.80;;
23682;SDS011;24897;53.514;10.482;2023-01-28T02:32:21;31.30;;;28.70;;
23682;SDS011;24897;53.514;10.482;2023-01-28T02:38:17;31.20;;;28.50;;
23682;SDS011;24897;53.514;10.482;2023-01-28T02:41:13;31.63;;;29.07;;
23682;SDS011;24897;53.514;10.482;2023-01-28T02:44:14;32.37;;;29.70;;
23682;SDS011;24897;53.514;10.482;2023-01-28T02:46:58;32.77;;;29.97;;
23682;SDS011;24897;53.514;10.482;2023-01-28T02:50:02;33.73;;;31.03;;
23682;SDS011;24897;53.514;10.482;2023-01-28T02:56:24;33.70;;;30.90;;
23682;SDS011;24897;53.514;10.482;2023-01-28T02:59:22;34.77;;;31.90;;
23682;SDS011;24897;53.514;10.482;2023-01-28T03:08:18;35.67;;;32.57;;
23682;SDS011;24897;53.514;10.482;2023-01-28T03:11:21;35.30;;;32.30;;
23682;SDS011;24897;53.514;10.482;2023-01-28T03:14:25;36.47;;;33.13;;
23682;SDS011;24897;53.514;10.482;2023-01-28T03:17:35;34.73;;;31.73;;
23682;SDS011;24897;53.514;10.482;2023-01-28T03:24:16;36.73;;;33.50;;
23682;SDS011;24897;53.514;10.482;2023-01-28T03:27:27;37.50;;;34.23;;
23682;SDS011;24897;53.514;10.482;2023-01-28T03:33:45;37.87;;;34.43;;
23682;SDS011;24897;53.514;10.482;2023-01-28T03:36:49;37.70;;;34.30;;
23682;SDS011;24897;53.514;10.482;2023-01-28T03:39:34;36.87;;;33.57;;
23682;SDS011;24897;53.514;10.482;2023-01-28T03:42:18;37.00;;;33.80;;
23682;SDS011;24897;53.514;10.482;2023-01-28T03:45:03;35.43;;;32.33;;
23682;SDS011;24897;53.514;10.482;2023-01-28T03:47:48;36.77;;;33.53;;
23682;SDS011;24897;53.514;10.482;2023-01-28T03:50:31;37.80;;;34.57;;
23682;SDS011;24897;53.514;10.482;2023-01-28T03:53:16;37.27;;;34.07;;
23682;SDS011;24897;53.514;10.482;2023-01-28T03:56:01;37.40;;;33.93;;
23682;SDS011;24897;53.514;10.482;2023-01-28T03:58:45;36.10;;;32.80;;
23682;SDS011;24897;53.514;10.482;2023-01-28T04:01:36;35.60;;;32.30;;
23682;SDS011;24897;53.514;10.482;2023-01-28T04:04:20;35.60;;;32.17;;
23682;SDS011;24897;53.514;10.482;2023-01-28T04:07:08;35.90;;;32.70;;
23682;SDS011;24897;53.514;10.482;2023-01-28T04:09:53;34.63;;;31.47;;
23682;SDS011;24897;53.514;10.482;2023-01-28T04:12:37;35.73;;;32.40;;
23682;SDS011;24897;53.514;10.482;2023-01-28T04:15:21;35.33;;;32.13;;
23682;SDS011;24897;53.514;10.482;2023-01-28T04:18:06;35.40;;;32.30;;
23682;SDS011;24897;53.514;10.482;2023-01-28T04:20:50;35.50;;;32.30;;
23682;SDS011;24897;53.514;10.482;2023-01-28T04:23:34;37.57;;;33.97;;
23682;SDS011;24897;53.514;10.482;2023-01-28T04:26:18;36.23;;;32.83;;
23682;SDS011;24897;53.514;10.482;2023-01-28T04:29:02;35.87;;;32.67;;
23682;SDS011;24897;53.514;10.482;2023-01-28T04:31:47;36.83;;;33.30;;
23682;SDS011;24897;53.514;10.482;2023-01-28T04:34:32;36.60;;;33.20;;
23682;SDS011;24897;53.514;10.482;2023-01-28T04:37:16;36.07;;;32.80;;
23682;SDS011;24897;53.514;10.482;2023-01-28T04:39:59;36.70;;;33.27;;
23682;SDS011;24897;53.514;10.482;2023-01-28T04:42:51;36.57;;;32.90;;
23682;SDS011;24897;53.514;10.482;2023-01-28T04:45:36;37.03;;;33.60;;
23682;SDS011;24897;53.514;10.482;2023-01-28T04:48:20;38.67;;;35.10;;
23682;SDS011;24897;53.514;10.482;2023-01-28T04:51:04;38.10;;;34.50;;
23682;SDS011;24897;53.514;10.482;2023-01-28T04:53:49;37.53;;;34.13;;
23682;SDS011;24897;53.514;10.482;2023-01-28T04:56:33;36.97;;;33.57;;
23682;SDS011;24897;53.514;10.482;2023-01-28T04:59:17;37.80;;;34.03;;
23682;SDS011;24897;53.514;10.482;2023-01-28T05:02:02;37.63;;;33.93;;
23682;SDS011;24897;53.514;10.482;2023-01-28T05:04:47;37.37;;;33.97;;
23682;SDS011;24897;53.514;10.482;2023-01-28T05:07:31;36.40;;;33.03;;
23682;SDS011;24897;53.514;10.482;2023-01-28T05:10:15;38.20;;;34.60;;
23682;SDS011;24897;53.514;10.482;2023-01-28T05:13:00;39.37;;;35.87;;
23682;SDS011;24897;53.514;10.482;2023-01-28T05:15:49;38.97;;;35.40;;
23682;SDS011;24897;53.514;10.482;2023-01-28T05:18:34;38.97;;;35.43;;
23682;SDS011;24897;53.514;10.482;2023-01-28T05:21:18;38.03;;;34.53;;
23682;SDS011;24897;53.514;10.482;2023-01-28T05:24:02;38.50;;;34.80;;
23682;SDS011;24897;53.514;10.482;2023-01-28T05:26:47;38.63;;;35.00;;
23682;SDS011;24897;53.514;10.482;2023-01-28T05:29:31;37.40;;;34.00;;
23682;SDS011;24897;53.514;10.482;2023-01-28T05:32:15;37.53;;;34.03;;
23682;SDS011;24897;53.514;10.482;2023-01-28T05:34:59;36.87;;;33.43;;
23682;SDS011;24897;53.514;10.482;2023-01-28T05:37:44;37.70;;;34.10;;
23682;SDS011;24897;53.514;10.482;2023-01-28T05:40:28;39.37;;;35.80;;
23682;SDS011;24897;53.514;10.482;2023-01-28T05:43:12;39.40;;;35.70;;
23682;SDS011;24897;53.514;10.482;2023-01-28T05:45:57;39.43;;;35.80;;
23682;SDS011;24897;53.514;10.482;2023-01-28T05:48:41;39.50;;;35.80;;
23682;SDS011;24897;53.514;10.482;2023-01-28T05:51:25;38.50;;;34.87;;
23682;SDS011;24897;53.514;10.482;2023-01-28T05:54:09;38.90;;;35.10;;
23682;SDS011;24897;53.514;10.482;2023-01-28T05:56:54;39.90;;;36.10;;
23682;SDS011;24897;53.514;10.482;2023-01-28T05:59:38;39.07;;;35.30;;
23682;SDS011;24897;53.514;10.482;2023-01-28T06:02:22;40.93;;;36.93;;
23682;SDS011;24897;53.514;10.482;2023-01-28T06:05:07;40.83;;;36.83;;
23682;SDS011;24897;53.514;10.482;2023-01-28T06:07:51;40.20;;;36.10;;
23682;SDS011;24897;53.514;10.482;2023-01-28T06:10:36;41.60;;;37.47;;
23682;SDS011;24897;53.514;10.482;2023-01-28T06:13:20;40.77;;;36.83;;
23682;SDS011;24897;53.514;10.482;2023-01-28T06:16:04;41.80;;;37.60;;
23682;SDS011;24897;53.514;10.482;2023-01-28T06:18:49;41.90;;;37.70;;
23682;SDS011;24897;53.514;10.482;2023-01-28T06:21:33;40.23;;;36.23;;
23682;SDS011;24897;53.514;10.482;2023-01-28T06:24:17;40.83;;;36.60;;
23682;SDS011;24897;53.514;10.482;2023-01-28T06:27:02;40.20;;;36.00;;
23682;SDS011;24897;53.514;10.482;2023-01-28T06:29:46;41.00;;;36.70;;
23682;SDS011;24897;53.514;10.482;2023-01-28T06:32:30;40.33;;;36.10;;
23682;SDS011;24897;53.514;10.482;2023-01-28T06:35:14;40.90;;;36.40;;
23682;SDS011;24897;53.514;10.482;2023-01-28T06:37:58;40.10;;;35.80;;
23682;SDS011;24897;53.514;10.482;2023-01-28T06:40:43;37.43;;;33.53;;
23682;SDS011;24897;53.514;10.482;2023-01-28T06:43:26;37.70;;;33.80;;
23682;SDS011;24897;53.514;10.482;2023-01-28T06:46:13;37.37;;;33.47;;
23682;SDS011;24897;53.514;10.482;2023-01-28T06:48:57;38.93;;;34.93;;
23682;SDS011;24897;53.514;10.482;2023-01-28T06:51:41;38.03;;;34.10;;
23682;SDS011;24897;53.514;10.482;2023-01-28T06:54:25;38.20;;;34.20;;
23682;SDS011;24897;53.514;10.482;2023-01-28T06:57:09;39.60;;;34.77;;
23682;SDS011;24897;53.514;10.482;2023-01-28T06:59:53;40.30;;;36.00;;
23682;SDS011;24897;53.514;10.482;2023-01-28T07:02:38;38.10;;;33.83;;
23682;SDS011;24897;53.514;10.482;2023-01-28T07:05:22;38.50;;;33.70;;
23682;SDS011;24897;53.514;10.482;2023-01-28T07:08:07;37.83;;;33.53;;
23682;SDS011;24897;53.514;10.482;2023-01-28T07:10:51;36.23;;;32.33;;
23682;SDS011;24897;53.514;10.482;2023-01-28T07:13:35;35.97;;;32.17;;
23682;SDS011;24897;53.514;10.482;2023-01-28T07:16:19;36.23;;;32.33;;
23682;SDS011;24897;53.514;10.482;2023-01-28T07:19:04;38.63;;;33.83;;
23682;SDS011;24897;53.514;10.482;2023-01-28T07:21:48;39.50;;;35.30;;
23682;SDS011;24897;53.514;10.482;2023-01-28T07:24:32;39.80;;;35.00;;
23682;SDS011;24897;53.514;10.482;2023-01-28T07:27:17;38.90;;;34.80;;
23682;SDS011;24897;53.514;10.482;2023-01-28T07:30:01;41.20;;;34.17;;
23682;SDS011;24897;53.514;10.482;2023-01-28T07:32:46;38.27;;;33.40;;
23682;SDS011;24897;53.514;10.482;2023-01-28T07:35:35;38.30;;;33.43;;
23682;SDS011;24897;53.514;10.482;2023-01-28T07:38:19;37.53;;;33.40;;
23682;SDS011;24897;53.514;10.482;2023-01-28T07:41:03;38.20;;;32.57;;
23682;SDS011;24897;53.514;10.482;2023-01-28T07:43:47;36.80;;;32.87;;
23682;SDS011;24897;53.514;10.482;2023-01-28T07:46:31;36.00;;;32.10;;
23682;SDS011;24897;53.514;10.482;2023-01-28T07:49:15;37.13;;;32.60;;
23682;SDS011;24897;53.514;10.482;2023-01-28T07:51:59;35.10;;;31.30;;
23682;SDS011;24897;53.514;10.482;2023-01-28T07:54:44;35.37;;;31.03;;
23682;SDS011;24897;53.514;10.482;2023-01-28T07:57:29;34.87;;;31.07;;
23682;SDS011;24897;53.514;10.482;2023-01-28T08:00:13;48.33;;;32.30;;
23682;SDS011;24897;53.514;10.482;2023-01-28T08:03:01;36.30;;;32.50;;
23682;SDS011;24897;53.514;10.482;2023-01-28T08:05:51;35.23;;;31.77;;
23682;SDS011;24897;53.514;10.482;2023-01-28T08:08:37;37.13;;;33.40;;
23682;SDS011;24897;53.514;10.482;2023-01-28T08:11:21;37.77;;;34.03;;
23682;SDS011;24897;53.514;10.482;2023-01-28T08:14:06;37.00;;;33.40;;
23682;SDS011;24897;53.514;10.482;2023-01-28T08:16:50;37.13;;;33.40;;
23682;SDS011;24897;53.514;10.482;2023-01-28T08:19:34;37.47;;;33.87;;
23682;SDS011;24897;53.514;10.482;2023-01-28T08:22:22;34.57;;;31.33;;
23682;SDS011;24897;53.514;10.482;2023-01-28T08:25:08;34.23;;;31.17;;
23682;SDS011;24897;53.514;10.482;2023-01-28T08:27:52;33.93;;;30.73;;
23682;SDS011;24897;53.514;10.482;2023-01-28T08:30:36;34.13;;;31.13;;
23682;SDS011;24897;53.514;10.482;2023-01-28T08:33:21;33.70;;;30.60;;
23682;SDS011;24897;53.514;10.482;2023-01-28T08:36:06;32.57;;;29.50;;
23682;SDS011;24897;53.514;10.482;2023-01-28T08:38:51;33.03;;;29.80;;
23682;SDS011;24897;53.514;10.482;2023-01-28T08:41:39;33.23;;;30.30;;
23682;SDS011;24897;53.514;10.482;2023-01-28T08:44:23;33.07;;;30.17;;
23682;SDS011;24897;53.514;10.482;2023-01-28T08:47:07;34.87;;;31.70;;
23682;SDS011;24897;53.514;10.482;2023-01-28T08:49:52;34.67;;;31.57;;
23682;SDS011;24897;53.514;10.482;2023-01-28T08:52:36;33.37;;;30.47;;
23682;SDS011;24897;53.514;10.482;2023-01-28T08:55:20;33.97;;;31.07;;
23682;SDS011;24897;53.514;10.482;2023-01-28T08:58:06;45.27;;;40.57;;
23682;SDS011;24897;53.514;10.482;2023-01-28T09:00:53;33.73;;;30.73;;
23682;SDS011;24897;53.514;10.482;2023-01-28T09:03:37;33.03;;;30.03;;
23682;SDS011;24897;53.514;10.482;2023-01-28T09:06:21;32.80;;;29.87;;
23682;SDS011;24897;53.514;10.482;2023-01-28T09:09:05;33.93;;;30.83;;
23682;SDS011;24897;53.514;10.482;2023-01-28T09:11:49;32.73;;;29.83;;
23682;SDS011;24897;53.514;10.482;2023-01-28T09:14:33;29.10;;;26.50;;
23682;SDS011;24897;53.514;10.482;2023-01-28T09:17:17;30.77;;;27.57;;
23682;SDS011;24897;53.514;10.482;2023-01-28T09:20:02;28.37;;;25.87;;
23682;SDS011;24897;53.514;10.482;2023-01-28T09:22:47;27.80;;;25.10;;
23682;SDS011;24897;53.514;10.482;2023-01-28T09:25:31;27.23;;;24.87;;
23682;SDS011;24897;53.514;10.482;2023-01-28T09:28:16;29.20;;;26.50;;
23682;SDS011;24897;53.514;10.482;2023-01-28T09:31:01;25.63;;;23.33;;
23682;SDS011;24897;53.514;10.482;2023-01-28T09:33:50;28.13;;;25.43;;
23682;SDS011;24897;53.514;10.482;2023-01-28T09:36:39;27.93;;;25.13;;
23682;SDS011;24897;53.514;10.482;2023-01-28T09:39:23;27.80;;;25.13;;
23682;SDS011;24897;53.514;10.482;2023-01-28T09:45:39;26.83;;;24.20;;
23682;SDS011;24897;53.514;10.482;2023-01-28T09:48:33;27.53;;;24.80;;
23682;SDS011;24897;53.514;10.482;2023-01-28T09:51:35;26.40;;;23.90;;
23682;SDS011;24897;53.514;10.482;2023-01-28T09:54:41;26.50;;;23.90;;
23682;SDS011;24897;53.514;10.482;2023-01-28T09:57:36;26.47;;;23.97;;
23682;SDS011;24897;53.514;10.482;2023-01-28T10:03:36;26.53;;;24.07;;
23682;SDS011;24897;53.514;10.482;2023-01-28T10:07:33;26.77;;;24.07;;
23682;SDS011;24897;53.514;10.482;2023-01-28T10:10:11;28.40;;;25.20;;
23682;SDS011;24897;53.514;10.482;2023-01-28T10:19:06;22.80;;;20.60;;
23682;SDS011;24897;53.514;10.482;2023-01-28T10:22:00;23.77;;;21.50;;
23682;SDS011;24897;53.514;10.482;2023-01-28T10:24:52;24.00;;;21.60;;
23682;SDS011;24897;53.514;10.482;2023-01-28T10:27:46;24.70;;;22.27;;
23682;SDS011;24897;53.514;10.482;2023-01-28T10:30:32;24.57;;;21.93;;
23682;SDS011;24897;53.514;10.482;2023-01-28T10:33:38;24.80;;;22.40;;
23682;SDS011;24897;53.514;10.482;2023-01-28T10:36:23;23.47;;;21.10;;
23682;SDS011;24897;53.514;10.482;2023-01-28T10:39:12;24.53;;;21.93;;
23682;SDS011;24897;53.514;10.482;2023-01-28T10:41:58;23.20;;;21.00;;
23682;SDS011;24897;53.514;10.482;2023-01-28T10:44:43;22.57;;;20.43;;
23682;SDS011;24897;53.514;10.482;2023-01-28T10:47:32;23.37;;;21.20;;
23682;SDS011;24897;53.514;10.482;2023-01-28T10:50:25;24.33;;;21.83;;
23682;SDS011;24897;53.514;10.482;2023-01-28T10:53:12;26.23;;;21.43;;
23682;SDS011;24897;53.514;10.482;2023-01-28T10:55:57;24.10;;;21.63;;
23682;SDS011;24897;53.514;10.482;2023-01-28T10:58:56;23.60;;;21.50;;
23682;SDS011;24897;53.514;10.482;2023-01-28T11:01:51;23.87;;;21.57;;
23682;SDS011;24897;53.514;10.482;2023-01-28T11:04:37;22.77;;;20.63;;
23682;SDS011;24897;53.514;10.482;2023-01-28T11:07:21;22.83;;;20.53;;
23682;SDS011;24897;53.514;10.482;2023-01-28T11:10:21;23.13;;;21.03;;
23682;SDS011;24897;53.514;10.482;2023-01-28T11:13:18;23.87;;;21.47;;
23682;SDS011;24897;53.514;10.482;2023-01-28T11:16:04;22.33;;;20.13;;
23682;SDS011;24897;53.514;10.482;2023-01-28T11:18:58;21.23;;;19.23;;
23682;SDS011;24897;53.514;10.482;2023-01-28T11:21:47;22.40;;;20.20;;
23682;SDS011;24897;53.514;10.482;2023-01-28T11:24:34;21.37;;;19.37;;
23682;SDS011;24897;53.514;10.482;2023-01-28T11:27:19;21.67;;;19.37;;
23682;SDS011;24897;53.514;10.482;2023-01-28T11:30:21;34.73;;;27.73;;
23682;SDS011;24897;53.514;10.482;2023-01-28T11:33:16;21.13;;;19.33;;
23682;SDS011;24897;53.514;10.482;2023-01-28T11:36:21;21.73;;;19.57;;
23682;SDS011;24897;53.514;10.482;2023-01-28T11:39:21;21.97;;;19.90;;
23682;SDS011;24897;53.514;10.482;2023-01-28T11:42:16;21.20;;;19.33;;
23682;SDS011;24897;53.514;10.482;2023-01-28T11:45:02;21.50;;;19.40;;
23682;SDS011;24897;53.514;10.482;2023-01-28T11:51:07;22.80;;;20.67;;
23682;SDS011;24897;53.514;10.482;2023-01-28T11:54:27;23.53;;;21.33;;
23682;SDS011;24897;53.514;10.482;2023-01-28T11:57:24;23.03;;;21.03;;
23682;SDS011;24897;53.514;10.482;2023-01-28T12:15:11;23.10;;;20.90;;
23682;SDS011;24897;53.514;10.482;2023-01-28T12:30:50;23.07;;;20.80;;
23682;SDS011;24897;53.514;10.482;2023-01-28T12:37:41;21.47;;;19.57;;
23682;SDS011;24897;53.514;10.482;2023-01-28T12:43:42;21.53;;;19.63;;
23682;SDS011;24897;53.514;10.482;2023-01-28T12:46:44;22.20;;;20.30;;
23682;SDS011;24897;53.514;10.482;2023-01-28T12:49:45;22.37;;;20.43;;
23682;SDS011;24897;53.514;10.482;2023-01-28T12:52:34;23.00;;;20.70;;
23682;SDS011;24897;53.514;10.482;2023-01-28T12:55:39;22.10;;;20.13;;
23682;SDS011;24897;53.514;10.482;2023-01-28T12:58:43;23.43;;;21.23;;
23682;SDS011;24897;53.514;10.482;2023-01-28T13:01:50;23.67;;;21.40;;
23682;SDS011;24897;53.514;10.482;2023-01-28T13:05:12;23.97;;;21.77;;
23682;SDS011;24897;53.514;10.482;2023-01-28T13:08:01;22.40;;;20.37;;
23682;SDS011;24897;53.514;10.482;2023-01-28T13:11:04;23.27;;;21.13;;
23682;SDS011;24897;53.514;10.482;2023-01-28T13:13:57;22.53;;;20.60;;
23682;SDS011;24897;53.514;10.482;2023-01-28T13:16:41;23.47;;;21.17;;
23682;SDS011;24897;53.514;10.482;2023-01-28T13:19:34;23.10;;;21.00;;
23682;SDS011;24897;53.514;10.482;2023-01-28T13:22:33;24.47;;;22.27;;
23682;SDS011;24897;53.514;10.482;2023-01-28T13:25:25;24.97;;;22.63;;
23682;SDS011;24897;53.514;10.482;2023-01-28T13:28:24;23.97;;;21.77;;
23682;SDS011;24897;53.514;10.482;2023-01-28T13:31:10;22.27;;;20.07;;
23682;SDS011;24897;53.514;10.482;2023-01-28T13:34:02;23.73;;;21.17;;
23682;SDS011;24897;53.514;10.482;2023-01-28T13:36:48;24.60;;;22.20;;
23682;SDS011;24897;53.514;10.482;2023-01-28T13:39:33;24.20;;;21.93;;
23682;SDS011;24897;53.514;10.482;2023-01-28T13:45:26;23.67;;;21.30;;
23682;SDS011;24897;53.514;10.482;2023-01-28T13:48:20;23.63;;;21.53;;
23682;SDS011;24897;53.514;10.482;2023-01-28T13:51:38;25.43;;;22.83;;
23682;SDS011;24897;53.514;10.482;2023-01-28T13:54:27;29.93;;;26.57;;
23682;SDS011;24897;53.514;10.482;2023-01-28T14:19:09;25.77;;;23.17;;
23682;SDS011;24897;53.514;10.482;2023-01-28T14:21:56;26.13;;;23.43;;
23682;SDS011;24897;53.514;10.482;2023-01-28T14:24:40;25.93;;;23.23;;
23682;SDS011;24897;53.514;10.482;2023-01-28T14:27:26;26.10;;;23.60;;
23682;SDS011;24897;53.514;10.482;2023-01-28T14:33:23;26.83;;;23.77;;
23682;SDS011;24897;53.514;10.482;2023-01-28T14:36:09;26.77;;;24.20;;
23682;SDS011;24897;53.514;10.482;2023-01-28T14:38:54;26.97;;;24.17;;
23682;SDS011;24897;53.514;10.482;2023-01-28T14:41:41;26.70;;;24.00;;
23682;SDS011;24897;53.514;10.482;2023-01-28T14:44:35;26.90;;;24.30;;
23682;SDS011;24897;53.514;10.482;2023-01-28T14:58:55;34.10;;;30.90;;
23682;SDS011;24897;53.514;10.482;2023-01-28T15:01:47;32.47;;;29.17;;
23682;SDS011;24897;53.514;10.482;2023-01-28T15:04:36;31.47;;;26.90;;
23682;SDS011;24897;53.514;10.482;2023-01-28T15:07:21;30.53;;;27.33;;
23682;SDS011;24897;53.514;10.482;2023-01-28T15:10:18;32.70;;;26.87;;
23682;SDS011;24897;53.514;10.482;2023-01-28T15:13:25;30.60;;;27.30;;
23682;SDS011;24897;53.514;10.482;2023-01-28T15:16:22;30.73;;;25.77;;
23682;SDS011;24897;53.514;10.482;2023-01-28T15:19:11;29.17;;;26.00;;
23682;SDS011;24897;53.514;10.482;2023-01-28T15:21:55;30.13;;;27.00;;
23682;SDS011;24897;53.514;10.482;2023-01-28T15:24:42;29.27;;;26.17;;
23682;SDS011;24897;53.514;10.482;2023-01-28T15:27:27;28.90;;;26.00;;
23682;SDS011;24897;53.514;10.482;2023-01-28T15:30:17;29.37;;;26.47;;
23682;SDS011;24897;53.514;10.482;2023-01-28T15:33:04;30.13;;;27.07;;
23682;SDS011;24897;53.514;10.482;2023-01-28T15:35:55;30.77;;;27.67;;
23682;SDS011;24897;53.514;10.482;2023-01-28T15:38:40;33.47;;;30.03;;
23682;SDS011;24897;53.514;10.482;2023-01-28T15:41:43;33.40;;;29.80;;
23682;SDS011;24897;53.514;10.482;2023-01-28T15:44:58;36.97;;;29.97;;
23682;SDS011;24897;53.514;10.482;2023-01-28T15:47:42;35.00;;;30.73;;
23682;SDS011;24897;53.514;10.482;2023-01-28T15:50:28;39.47;;;33.40;;
23682;SDS011;24897;53.514;10.482;2023-01-28T15:53:12;38.27;;;32.67;;
23682;SDS011;24897;53.514;10.482;2023-01-28T15:56:04;38.87;;;34.60;;
23682;SDS011;24897;53.514;10.482;2023-01-28T15:58:53;43.93;;;37.40;;
23682;SDS011;24897;53.514;10.482;2023-01-28T16:01:38;46.00;;;37.70;;
23682;SDS011;24897;53.514;10.482;2023-01-28T16:04:26;39.60;;;35.40;;
23682;SDS011;24897;53.514;10.482;2023-01-28T16:07:12;44.27;;;37.83;;
23682;SDS011;24897;53.514;10.482;2023-01-28T16:09:57;42.80;;;38.30;;
23682;SDS011;24897;53.514;10.482;2023-01-28T16:12:47;46.07;;;39.23;;
23682;SDS011;24897;53.514;10.482;2023-01-28T16:15:35;44.27;;;39.53;;
23682;SDS011;24897;53.514;10.482;2023-01-28T16:21:19;50.53;;;43.13;;
23682;SDS011;24897;53.514;10.482;2023-01-28T16:24:25;51.00;;;41.97;;
23682;SDS011;24897;53.514;10.482;2023-01-28T16:27:22;46.37;;;41.17;;
23682;SDS011;24897;53.514;10.482;2023-01-28T16:30:09;52.03;;;43.20;;
23682;SDS011;24897;53.514;10.482;2023-01-28T16:32:54;49.13;;;43.13;;
23682;SDS011;24897;53.514;10.482;2023-01-28T16:35:38;50.33;;;42.23;;
23682;SDS011;24897;53.514;10.482;2023-01-28T16:38:22;52.27;;;41.83;;
23682;SDS011;24897;53.514;10.482;2023-01-28T16:41:13;48.97;;;42.27;;
23682;SDS011;24897;53.514;10.482;2023-01-28T16:44:08;52.23;;;43.87;;
23682;SDS011;24897;53.514;10.482;2023-01-28T16:46:57;54.03;;;43.13;;
23682;SDS011;24897;53.514;10.482;2023-01-28T16:49:41;55.00;;;44.67;;
23682;SDS011;24897;53.514;10.482;2023-01-28T16:52:25;55.17;;;43.37;;
23682;SDS011;24897;53.514;10.482;2023-01-28T16:55:14;54.03;;;43.97;;
23682;SDS011;24897;53.514;10.482;2023-01-28T16:58:00;55.93;;;43.73;;
23682;SDS011;24897;53.514;10.482;2023-01-28T17:00:44;54.00;;;44.47;;
23682;SDS011;24897;53.514;10.482;2023-01-28T17:03:28;53.50;;;44.20;;
23682;SDS011;24897;53.514;10.482;2023-01-28T17:06:14;50.97;;;43.40;;
23682;SDS011;24897;53.514;10.482;2023-01-28T17:09:00;54.30;;;43.33;;
23682;SDS011;24897;53.514;10.482;2023-01-28T17:11:44;55.43;;;44.27;;
23682;SDS011;24897;53.514;10.482;2023-01-28T17:14:28;54.67;;;43.87;;
23682;SDS011;24897;53.514;10.482;2023-01-28T17:17:13;55.87;;;45.77;;
23682;SDS011;24897;53.514;10.482;2023-01-28T17:19:57;56.57;;;44.20;;
23682;SDS011;24897;53.514;10.482;2023-01-28T17:22:41;51.10;;;42.83;;
23682;SDS011;24897;53.514;10.482;2023-01-28T17:25:26;50.60;;;43.77;;
23682;SDS011;24897;53.514;10.482;2023-01-28T17:28:10;53.27;;;43.63;;
23682;SDS011;24897;53.514;10.482;2023-01-28T17:30:54;54.60;;;44.63;;
23682;SDS011;24897;53.514;10.482;2023-01-28T17:33:39;55.07;;;45.67;;
23682;SDS011;24897;53.514;10.482;2023-01-28T17:36:24;59.17;;;49.20;;
23682;SDS011;24897;53.514;10.482;2023-01-28T17:39:09;60.73;;;47.73;;
23682;SDS011;24897;53.514;10.482;2023-01-28T17:41:53;54.37;;;45.73;;
23682;SDS011;24897;53.514;10.482;2023-01-28T17:44:38;55.37;;;46.83;;
23682;SDS011;24897;53.514;10.482;2023-01-28T17:47:22;56.07;;;48.30;;
23682;SDS011;24897;53.514;10.482;2023-01-28T17:50:06;56.77;;;45.43;;
23682;SDS011;24897;53.514;10.482;2023-01-28T17:52:55;53.93;;;45.43;;
23682;SDS011;24897;53.514;10.482;2023-01-28T17:55:40;53.60;;;46.40;;
23682;SDS011;24897;53.514;10.482;2023-01-28T17:58:24;53.43;;;47.20;;
23682;SDS011;24897;53.514;10.482;2023-01-28T18:01:08;56.00;;;45.40;;
23682;SDS011;24897;53.514;10.482;2023-01-28T18:03:53;57.00;;;47.00;;
23682;SDS011;24897;53.514;10.482;2023-01-28T18:06:38;57.00;;;46.10;;
23682;SDS011;24897;53.514;10.482;2023-01-28T18:09:22;64.70;;;49.77;;
23682;SDS011;24897;53.514;10.482;2023-01-28T18:12:07;57.97;;;47.17;;
23682;SDS011;24897;53.514;10.482;2023-01-28T18:14:54;63.30;;;49.20;;